sensor_id;sensor_type;location;lat;lon;timestamp;temperature;humidity
19999;DHT22;10160;50.926;4.374;2023-06-04T00:01:19;16.80;99.90
19999;DHT22;10160;50.926;4.374;2023-06-04T00:03:45;16.80;99.90
19999;DHT22;10160;50.926;4.374;2023-06-04T00:06:11;16.80;99.90
19999;DHT22;10160;50.926;4.374;2023-06-04T00:08:37;16.70;99.90
19999;DHT22;10160;50.926;4.374;2023-06-04T00:11:02;16.50;99.90
19999;DHT22;10160;50.926;4.374;2023-06-04T00:13:28;16.50;99.90
19999;DHT22;10160;50.926;4.374;2023-06-04T00:15:54;16.30;99.90
19999;DHT22;10160;50.926;4.374;2023-06-04T00:18:20;16.20;99.90
19999;DHT22;10160;50.926;4.374;2023-06-04T00:20:45;16.10;99.90
19999;DHT22;10160;50.926;4.374;2023-06-04T00:23:11;16.20;99.90
19999;DHT22;10160;50.926;4.374;2023-06-04T00:25:37;16.20;99.90
19999;DHT22;10160;50.926;4.374;2023-06-04T00:28:02;16.30;99.90
19999;DHT22;10160;50.926;4.374;2023-06-04T00:30:28;16.30;99.90
19999;DHT22;10160;50.926;4.374;2023-06-04T00:32:54;16.30;99.90
19999;DHT22;10160;50.926;4.374;2023-06-04T00:35:21;16.20;99.90
19999;DHT22;10160;50.926;4.374;2023-06-04T00:37:47;16.00;99.90
19999;DHT22;10160;50.926;4.374;2023-06-04T00:40:12;16.00;99.90
19999;DHT22;10160;50.926;4.374;2023-06-04T00:42:38;16.00;99.90
19999;DHT22;10160;50.926;4.374;2023-06-04T00:45:05;16.00;99.90
19999;DHT22;10160;50.926;4.374;2023-06-04T00:47:33;16.10;99.90
19999;DHT22;10160;50.926;4.374;2023-06-04T00:49:59;16.10;99.90
19999;DHT22;10160;50.926;4.374;2023-06-04T00:52:25;15.90;99.90
19999;DHT22;10160;50.926;4.374;2023-06-04T00:54:52;15.80;99.90
19999;DHT22;10160;50.926;4.374;2023-06-04T00:57:20;15.70;99.90
19999;DHT22;10160;50.926;4.374;2023-06-04T00:59:46;15.70;99.90
19999;DHT22;10160;50.926;4.374;2023-06-04T01:02:18;15.60;99.90
19999;DHT22;10160;50.926;4.374;2023-06-04T01:07:40;15.40;99.90
19999;DHT22;10160;50.926;4.374;2023-06-04T01:10:10;15.40;99.90
19999;DHT22;10160;50.926;4.374;2023-06-04T01:12:40;15.30;99.90
19999;DHT22;10160;50.926;4.374;2023-06-04T01:15:06;15.30;99.90
19999;DHT22;10160;50.926;4.374;2023-06-04T01:17:37;15.20;99.90
19999;DHT22;10160;50.926;4.374;2023-06-04T01:20:25;15.30;99.90
19999;DHT22;10160;50.926;4.374;2023-06-04T01:25:37;15.50;99.90
19999;DHT22;10160;50.926;4.374;2023-06-04T01:28:05;15.30;99.90
19999;DHT22;10160;50.926;4.374;2023-06-04T01:30:36;15.30;99.90
19999;DHT22;10160;50.926;4.374;2023-06-04T01:33:10;15.20;99.90
19999;DHT22;10160;50.926;4.374;2023-06-04T01:35:36;15.20;99.90
19999;DHT22;10160;50.926;4.374;2023-06-04T01:38:02;15.20;99.90
19999;DHT22;10160;50.926;4.374;2023-06-04T01:40:28;15.20;99.90
19999;DHT22;10160;50.926;4.374;2023-06-04T01:42:54;15.20;99.90
19999;DHT22;10160;50.926;4.374;2023-06-04T01:45:23;15.20;99.90
19999;DHT22;10160;50.926;4.374;2023-06-04T01:47:49;15.00;99.90
19999;DHT22;10160;50.926;4.374;2023-06-04T01:50:15;15.10;99.90
19999;DHT22;10160;50.926;4.374;2023-06-04T01:52:42;15.10;99.90
19999;DHT22;10160;50.926;4.374;2023-06-04T01:55:10;15.10;99.90
19999;DHT22;10160;50.926;4.374;2023-06-04T01:57:38;15.10;99.90
19999;DHT22;10160;50.926;4.374;2023-06-04T02:00:05;15.10;99.90
19999;DHT22;10160;50.926;4.374;2023-06-04T02:02:33;15.00;99.90
19999;DHT22;10160;50.926;4.374;2023-06-04T02:04:59;15.00;99.90
19999;DHT22;10160;50.926;4.374;2023-06-04T02:07:25;14.90;99.90
19999;DHT22;10160;50.926;4.374;2023-06-04T02:09:51;14.90;99.90
19999;DHT22;10160;50.926;4.374;2023-06-04T02:12:17;14.80;99.90
19999;DHT22;10160;50.926;4.374;2023-06-04T02:14:43;14.80;99.90
19999;DHT22;10160;50.926;4.374;2023-06-04T02:17:11;14.70;99.90
19999;DHT22;10160;50.926;4.374;2023-06-04T02:19:43;14.70;99.90
19999;DHT22;10160;50.926;4.374;2023-06-04T02:22:18;14.60;99.90
19999;DHT22;10160;50.926;4.374;2023-06-04T02:24:45;14.50;99.90
19999;DHT22;10160;50.926;4.374;2023-06-04T02:27:12;14.40;99.90
19999;DHT22;10160;50.926;4.374;2023-06-04T02:29:39;14.40;99.90
19999;DHT22;10160;50.926;4.374;2023-06-04T02:32:05;14.40;99.90
19999;DHT22;10160;50.926;4.374;2023-06-04T02:34:31;14.40;99.90
19999;DHT22;10160;50.926;4.374;2023-06-04T02:36:56;14.40;99.90
19999;DHT22;10160;50.926;4.374;2023-06-04T02:39:22;14.40;99.90
19999;DHT22;10160;50.926;4.374;2023-06-04T02:41:48;14.50;99.90
19999;DHT22;10160;50.926;4.374;2023-06-04T02:44:13;14.50;99.90
19999;DHT22;10160;50.926;4.374;2023-06-04T02:46:39;14.50;99.90
19999;DHT22;10160;50.926;4.374;2023-06-04T02:49:05;14.50;99.90
19999;DHT22;10160;50.926;4.374;2023-06-04T02:51:31;14.50;99.90
19999;DHT22;10160;50.926;4.374;2023-06-04T02:53:58;14.50;99.90
19999;DHT22;10160;50.926;4.374;2023-06-04T02:56:24;14.50;99.90
19999;DHT22;10160;50.926;4.374;2023-06-04T02:58:54;14.60;99.90
19999;DHT22;10160;50.926;4.374;2023-06-04T03:01:25;14.60;99.90
19999;DHT22;10160;50.926;4.374;2023-06-04T03:03:52;14.60;99.90
19999;DHT22;10160;50.926;4.374;2023-06-04T03:06:19;14.50;99.90
19999;DHT22;10160;50.926;4.374;2023-06-04T03:08:49;14.60;99.90
19999;DHT22;10160;50.926;4.374;2023-06-04T03:11:16;14.40;99.90
19999;DHT22;10160;50.926;4.374;2023-06-04T03:13:42;14.40;99.90
19999;DHT22;10160;50.926;4.374;2023-06-04T03:16:08;14.30;99.90
19999;DHT22;10160;50.926;4.374;2023-06-04T03:18:37;14.30;99.90
19999;DHT22;10160;50.926;4.374;2023-06-04T03:21:04;14.30;99.90
19999;DHT22;10160;50.926;4.374;2023-06-04T03:23:30;14.30;99.90
19999;DHT22;10160;50.926;4.374;2023-06-04T03:25:57;14.30;99.90
19999;DHT22;10160;50.926;4.374;2023-06-04T03:28:22;14.30;99.90
19999;DHT22;10160;50.926;4.374;2023-06-04T03:30:48;14.30;99.90
19999;DHT22;10160;50.926;4.374;2023-06-04T03:33:14;14.30;99.90
19999;DHT22;10160;50.926;4.374;2023-06-04T03:35:42;14.20;99.90
19999;DHT22;10160;50.926;4.374;2023-06-04T03:38:08;14.20;99.90
19999;DHT22;10160;50.926;4.374;2023-06-04T03:40:34;14.20;99.90
19999;DHT22;10160;50.926;4.374;2023-06-04T03:43:00;14.20;99.90
19999;DHT22;10160;50.926;4.374;2023-06-04T03:45:26;14.20;99.90
19999;DHT22;10160;50.926;4.374;2023-06-04T03:47:52;14.20;99.90
19999;DHT22;10160;50.926;4.374;2023-06-04T03:50:20;14.20;99.90
19999;DHT22;10160;50.926;4.374;2023-06-04T03:52:49;14.20;99.90
19999;DHT22;10160;50.926;4.374;2023-06-04T03:55:15;14.30;99.90
19999;DHT22;10160;50.926;4.374;2023-06-04T03:57:41;14.40;99.90
19999;DHT22;10160;50.926;4.374;2023-06-04T04:00:08;14.40;99.90
19999;DHT22;10160;50.926;4.374;2023-06-04T04:02:37;14.50;99.90
19999;DHT22;10160;50.926;4.374;2023-06-04T04:05:03;14.50;99.90
19999;DHT22;10160;50.926;4.374;2023-06-04T04:07:29;14.60;99.90
19999;DHT22;10160;50.926;4.374;2023-06-04T04:09:55;14.70;99.90
19999;DHT22;10160;50.926;4.374;2023-06-04T04:12:21;14.70;99.90
19999;DHT22;10160;50.926;4.374;2023-06-04T04:14:47;14.70;99.90
19999;DHT22;10160;50.926;4.374;2023-06-04T04:17:13;14.80;99.90
19999;DHT22;10160;50.926;4.374;2023-06-04T04:19:39;14.80;99.90
19999;DHT22;10160;50.926;4.374;2023-06-04T04:22:05;14.90;99.90
19999;DHT22;10160;50.926;4.374;2023-06-04T04:24:32;14.80;99.90
19999;DHT22;10160;50.926;4.374;2023-06-04T04:26:59;14.80;99.90
19999;DHT22;10160;50.926;4.374;2023-06-04T04:29:25;14.80;99.90
19999;DHT22;10160;50.926;4.374;2023-06-04T04:31:53;14.70;99.90
19999;DHT22;10160;50.926;4.374;2023-06-04T04:34:22;14.70;99.90
19999;DHT22;10160;50.926;4.374;2023-06-04T04:36:50;14.70;99.90
19999;DHT22;10160;50.926;4.374;2023-06-04T04:39:23;14.70;99.90
19999;DHT22;10160;50.926;4.374;2023-06-04T04:41:48;14.70;99.90
19999;DHT22;10160;50.926;4.374;2023-06-04T04:44:14;14.80;99.90
19999;DHT22;10160;50.926;4.374;2023-06-04T04:46:40;14.90;99.90
19999;DHT22;10160;50.926;4.374;2023-06-04T04:49:05;14.90;99.90
19999;DHT22;10160;50.926;4.374;2023-06-04T04:51:31;15.10;99.90
19999;DHT22;10160;50.926;4.374;2023-06-04T04:53:58;15.20;99.90
19999;DHT22;10160;50.926;4.374;2023-06-04T04:56:25;15.20;99.90
19999;DHT22;10160;50.926;4.374;2023-06-04T04:58:52;15.30;99.90
19999;DHT22;10160;50.926;4.374;2023-06-04T05:01:18;15.40;99.90
19999;DHT22;10160;50.926;4.374;2023-06-04T05:03:43;15.50;99.90
19999;DHT22;10160;50.926;4.374;2023-06-04T05:06:09;15.60;99.90
19999;DHT22;10160;50.926;4.374;2023-06-04T05:08:35;15.30;99.90
19999;DHT22;10160;50.926;4.374;2023-06-04T05:11:01;15.20;99.90
19999;DHT22;10160;50.926;4.374;2023-06-04T05:13:27;15.10;99.90
19999;DHT22;10160;50.926;4.374;2023-06-04T05:15:52;14.90;99.90
19999;DHT22;10160;50.926;4.374;2023-06-04T05:18:19;15.00;99.90
19999;DHT22;10160;50.926;4.374;2023-06-04T05:20:58;15.20;99.90
19999;DHT22;10160;50.926;4.374;2023-06-04T05:23:26;15.40;99.90
19999;DHT22;10160;50.926;4.374;2023-06-04T05:25:51;15.50;99.90
19999;DHT22;10160;50.926;4.374;2023-06-04T05:28:17;15.30;99.90
19999;DHT22;10160;50.926;4.374;2023-06-04T05:30:43;15.40;99.90
19999;DHT22;10160;50.926;4.374;2023-06-04T05:33:09;15.40;99.90
19999;DHT22;10160;50.926;4.374;2023-06-04T05:35:46;15.20;99.90
19999;DHT22;10160;50.926;4.374;2023-06-04T05:38:11;15.30;99.90
19999;DHT22;10160;50.926;4.374;2023-06-04T05:40:43;15.60;99.90
19999;DHT22;10160;50.926;4.374;2023-06-04T05:43:08;15.40;99.90
19999;DHT22;10160;50.926;4.374;2023-06-04T05:45:34;15.70;99.90
19999;DHT22;10160;50.926;4.374;2023-06-04T05:48:00;16.00;99.90
19999;DHT22;10160;50.926;4.374;2023-06-04T05:50:25;16.20;99.90
19999;DHT22;10160;50.926;4.374;2023-06-04T05:52:51;16.50;99.90
19999;DHT22;10160;50.926;4.374;2023-06-04T05:55:17;16.70;99.90
19999;DHT22;10160;50.926;4.374;2023-06-04T05:57:42;16.80;99.90
19999;DHT22;10160;50.926;4.374;2023-06-04T06:00:08;17.00;99.90
19999;DHT22;10160;50.926;4.374;2023-06-04T06:02:35;17.10;99.90
19999;DHT22;10160;50.926;4.374;2023-06-04T06:05:03;16.50;99.90
19999;DHT22;10160;50.926;4.374;2023-06-04T06:07:28;16.50;99.90
19999;DHT22;10160;50.926;4.374;2023-06-04T06:09:54;16.70;99.90
19999;DHT22;10160;50.926;4.374;2023-06-04T06:12:20;17.00;99.90
19999;DHT22;10160;50.926;4.374;2023-06-04T06:14:46;16.80;99.90
19999;DHT22;10160;50.926;4.374;2023-06-04T06:17:12;16.80;99.90
19999;DHT22;10160;50.926;4.374;2023-06-04T06:19:38;16.50;99.90
19999;DHT22;10160;50.926;4.374;2023-06-04T06:22:05;16.60;99.90
19999;DHT22;10160;50.926;4.374;2023-06-04T06:24:30;16.70;99.90
19999;DHT22;10160;50.926;4.374;2023-06-04T06:26:56;16.40;99.90
19999;DHT22;10160;50.926;4.374;2023-06-04T06:29:22;16.60;99.90
19999;DHT22;10160;50.926;4.374;2023-06-04T06:31:47;16.90;99.90
19999;DHT22;10160;50.926;4.374;2023-06-04T06:34:13;17.20;99.90
19999;DHT22;10160;50.926;4.374;2023-06-04T06:36:39;17.40;99.90
19999;DHT22;10160;50.926;4.374;2023-06-04T06:39:04;17.70;99.90
19999;DHT22;10160;50.926;4.374;2023-06-04T06:41:30;17.90;99.90
19999;DHT22;10160;50.926;4.374;2023-06-04T06:43:57;17.90;99.90
19999;DHT22;10160;50.926;4.374;2023-06-04T06:46:23;17.80;99.90
19999;DHT22;10160;50.926;4.374;2023-06-04T06:48:48;17.40;99.90
19999;DHT22;10160;50.926;4.374;2023-06-04T06:51:15;16.90;99.90
19999;DHT22;10160;50.926;4.374;2023-06-04T06:53:41;17.10;99.90
19999;DHT22;10160;50.926;4.374;2023-06-04T06:56:07;17.40;99.90
19999;DHT22;10160;50.926;4.374;2023-06-04T06:58:33;17.70;99.90
19999;DHT22;10160;50.926;4.374;2023-06-04T07:00:59;18.00;99.90
19999;DHT22;10160;50.926;4.374;2023-06-04T07:03:24;18.00;99.90
19999;DHT22;10160;50.926;4.374;2023-06-04T07:05:50;17.50;99.90
19999;DHT22;10160;50.926;4.374;2023-06-04T07:08:15;17.40;99.90
19999;DHT22;10160;50.926;4.374;2023-06-04T07:10:41;17.30;99.90
19999;DHT22;10160;50.926;4.374;2023-06-04T07:13:07;17.10;99.90
19999;DHT22;10160;50.926;4.374;2023-06-04T07:15:32;17.10;99.90
19999;DHT22;10160;50.926;4.374;2023-06-04T07:17:58;17.10;99.90
19999;DHT22;10160;50.926;4.374;2023-06-04T07:20:24;16.90;99.90
19999;DHT22;10160;50.926;4.374;2023-06-04T07:22:50;17.20;99.90
19999;DHT22;10160;50.926;4.374;2023-06-04T07:25:15;17.40;99.90
19999;DHT22;10160;50.926;4.374;2023-06-04T07:27:41;17.30;99.90
19999;DHT22;10160;50.926;4.374;2023-06-04T07:30:07;17.50;99.90
19999;DHT22;10160;50.926;4.374;2023-06-04T07:32:33;17.80;99.90
19999;DHT22;10160;50.926;4.374;2023-06-04T07:34:59;18.00;99.90
19999;DHT22;10160;50.926;4.374;2023-06-04T07:37:25;18.10;99.90
19999;DHT22;10160;50.926;4.374;2023-06-04T07:39:50;18.00;99.90
19999;DHT22;10160;50.926;4.374;2023-06-04T07:42:16;18.00;99.90
19999;DHT22;10160;50.926;4.374;2023-06-04T07:44:42;18.20;99.90
19999;DHT22;10160;50.926;4.374;2023-06-04T07:47:07;17.90;99.90
19999;DHT22;10160;50.926;4.374;2023-06-04T07:49:33;17.90;99.90
19999;DHT22;10160;50.926;4.374;2023-06-04T07:51:59;17.90;99.90
19999;DHT22;10160;50.926;4.374;2023-06-04T07:54:24;17.90;99.90
19999;DHT22;10160;50.926;4.374;2023-06-04T07:56:51;17.80;99.90
19999;DHT22;10160;50.926;4.374;2023-06-04T07:59:24;17.90;99.90
19999;DHT22;10160;50.926;4.374;2023-06-04T08:01:50;17.90;99.90
19999;DHT22;10160;50.926;4.374;2023-06-04T08:04:19;18.10;99.90
19999;DHT22;10160;50.926;4.374;2023-06-04T08:06:45;18.20;99.90
19999;DHT22;10160;50.926;4.374;2023-06-04T08:09:11;18.30;99.90
19999;DHT22;10160;50.926;4.374;2023-06-04T08:11:40;18.50;99.90
19999;DHT22;10160;50.926;4.374;2023-06-04T08:14:06;18.90;99.90
19999;DHT22;10160;50.926;4.374;2023-06-04T08:16:32;19.30;99.90
19999;DHT22;10160;50.926;4.374;2023-06-04T08:18:57;19.50;99.90
19999;DHT22;10160;50.926;4.374;2023-06-04T08:21:27;19.80;99.90
19999;DHT22;10160;50.926;4.374;2023-06-04T08:23:54;19.60;99.90
19999;DHT22;10160;50.926;4.374;2023-06-04T08:26:20;19.30;99.90
19999;DHT22;10160;50.926;4.374;2023-06-04T08:28:49;19.40;99.90
19999;DHT22;10160;50.926;4.374;2023-06-04T08:31:15;19.40;99.90
19999;DHT22;10160;50.926;4.374;2023-06-04T08:33:42;19.50;99.90
19999;DHT22;10160;50.926;4.374;2023-06-04T08:36:08;19.40;99.90
19999;DHT22;10160;50.926;4.374;2023-06-04T08:38:34;19.60;99.90
19999;DHT22;10160;50.926;4.374;2023-06-04T08:41:12;19.40;99.90
19999;DHT22;10160;50.926;4.374;2023-06-04T08:43:39;19.80;99.90
19999;DHT22;10160;50.926;4.374;2023-06-04T08:46:05;20.00;99.90
19999;DHT22;10160;50.926;4.374;2023-06-04T08:48:34;20.20;99.90
19999;DHT22;10160;50.926;4.374;2023-06-04T08:51:02;20.40;99.90
19999;DHT22;10160;50.926;4.374;2023-06-04T08:53:31;20.20;99.90
19999;DHT22;10160;50.926;4.374;2023-06-04T08:55:57;19.90;99.90
19999;DHT22;10160;50.926;4.374;2023-06-04T08:58:23;19.90;99.90
19999;DHT22;10160;50.926;4.374;2023-06-04T09:00:50;20.30;99.90
19999;DHT22;10160;50.926;4.374;2023-06-04T09:03:17;20.50;99.90
19999;DHT22;10160;50.926;4.374;2023-06-04T09:05:48;20.50;99.90
19999;DHT22;10160;50.926;4.374;2023-06-04T09:08:17;20.50;99.90
19999;DHT22;10160;50.926;4.374;2023-06-04T09:10:44;20.80;99.90
19999;DHT22;10160;50.926;4.374;2023-06-04T09:13:13;20.70;99.90
19999;DHT22;10160;50.926;4.374;2023-06-04T09:15:39;20.50;99.90
19999;DHT22;10160;50.926;4.374;2023-06-04T09:18:05;20.90;99.90
19999;DHT22;10160;50.926;4.374;2023-06-04T09:20:30;21.00;99.90
19999;DHT22;10160;50.926;4.374;2023-06-04T09:22:58;21.20;99.90
19999;DHT22;10160;50.926;4.374;2023-06-04T09:28:46;21.10;99.90
19999;DHT22;10160;50.926;4.374;2023-06-04T09:31:18;21.40;99.90
19999;DHT22;10160;50.926;4.374;2023-06-04T09:33:47;21.80;99.90
19999;DHT22;10160;50.926;4.374;2023-06-04T09:36:13;21.80;99.90
19999;DHT22;10160;50.926;4.374;2023-06-04T09:38:39;21.50;99.90
19999;DHT22;10160;50.926;4.374;2023-06-04T09:41:16;21.70;99.90
19999;DHT22;10160;50.926;4.374;2023-06-04T09:43:42;21.70;99.90
19999;DHT22;10160;50.926;4.374;2023-06-04T09:46:12;21.60;99.90
19999;DHT22;10160;50.926;4.374;2023-06-04T09:48:39;21.80;99.90
19999;DHT22;10160;50.926;4.374;2023-06-04T09:51:10;21.90;99.90
19999;DHT22;10160;50.926;4.374;2023-06-04T09:53:37;22.10;99.90
19999;DHT22;10160;50.926;4.374;2023-06-04T09:56:04;22.50;99.90
19999;DHT22;10160;50.926;4.374;2023-06-04T09:58:32;23.00;99.90
19999;DHT22;10160;50.926;4.374;2023-06-04T10:01:00;23.10;99.20
19999;DHT22;10160;50.926;4.374;2023-06-04T10:03:31;22.60;97.80
19999;DHT22;10160;50.926;4.374;2023-06-04T10:05:59;22.70;98.50
19999;DHT22;10160;50.926;4.374;2023-06-04T10:08:26;22.60;98.20
19999;DHT22;10160;50.926;4.374;2023-06-04T10:10:56;22.40;98.90
19999;DHT22;10160;50.926;4.374;2023-06-04T10:13:26;23.00;99.90
19999;DHT22;10160;50.926;4.374;2023-06-04T10:15:55;23.10;97.40
19999;DHT22;10160;50.926;4.374;2023-06-04T10:18:21;22.80;96.40
19999;DHT22;10160;50.926;4.374;2023-06-04T10:20:48;22.70;96.60
19999;DHT22;10160;50.926;4.374;2023-06-04T10:23:14;22.70;96.00
19999;DHT22;10160;50.926;4.374;2023-06-04T10:25:41;22.60;97.40
19999;DHT22;10160;50.926;4.374;2023-06-04T10:28:06;22.90;99.70
19999;DHT22;10160;50.926;4.374;2023-06-04T10:30:33;23.20;97.40
19999;DHT22;10160;50.926;4.374;2023-06-04T10:32:59;23.30;96.10
19999;DHT22;10160;50.926;4.374;2023-06-04T10:35:35;23.90;95.50
19999;DHT22;10160;50.926;4.374;2023-06-04T10:38:09;24.20;96.10
19999;DHT22;10160;50.926;4.374;2023-06-04T10:40:35;24.10;92.00
19999;DHT22;10160;50.926;4.374;2023-06-04T10:43:09;23.30;92.90
19999;DHT22;10160;50.926;4.374;2023-06-04T10:45:35;22.90;92.70
19999;DHT22;10160;50.926;4.374;2023-06-04T10:48:02;23.40;95.10
19999;DHT22;10160;50.926;4.374;2023-06-04T10:50:28;23.50;94.30
19999;DHT22;10160;50.926;4.374;2023-06-04T10:52:55;23.70;93.20
19999;DHT22;10160;50.926;4.374;2023-06-04T10:55:22;23.80;94.10
19999;DHT22;10160;50.926;4.374;2023-06-04T10:57:55;24.40;92.40
19999;DHT22;10160;50.926;4.374;2023-06-04T11:00:22;24.70;92.80
19999;DHT22;10160;50.926;4.374;2023-06-04T11:02:59;25.30;91.60
19999;DHT22;10160;50.926;4.374;2023-06-04T11:05:41;24.60;90.80
19999;DHT22;10160;50.926;4.374;2023-06-04T11:08:11;25.00;90.70
19999;DHT22;10160;50.926;4.374;2023-06-04T11:10:43;25.00;92.30
19999;DHT22;10160;50.926;4.374;2023-06-04T11:13:09;25.50;89.80
19999;DHT22;10160;50.926;4.374;2023-06-04T11:15:42;25.70;91.30
19999;DHT22;10160;50.926;4.374;2023-06-04T11:18:30;26.50;90.50
19999;DHT22;10160;50.926;4.374;2023-06-04T11:21:01;26.50;84.20
19999;DHT22;10160;50.926;4.374;2023-06-04T11:23:29;26.80;83.90
19999;DHT22;10160;50.926;4.374;2023-06-04T11:25:55;27.10;79.80
19999;DHT22;10160;50.926;4.374;2023-06-04T11:28:21;26.30;77.50
19999;DHT22;10160;50.926;4.374;2023-06-04T11:31:00;25.70;81.10
19999;DHT22;10160;50.926;4.374;2023-06-04T11:36:09;26.00;82.20
19999;DHT22;10160;50.926;4.374;2023-06-04T11:38:34;24.70;80.20
19999;DHT22;10160;50.926;4.374;2023-06-04T11:41:02;25.10;82.60
19999;DHT22;10160;50.926;4.374;2023-06-04T11:43:28;25.60;77.10
19999;DHT22;10160;50.926;4.374;2023-06-04T11:45:54;26.00;74.00
19999;DHT22;10160;50.926;4.374;2023-06-04T11:48:21;26.30;78.80
19999;DHT22;10160;50.926;4.374;2023-06-04T11:50:46;26.80;73.20
19999;DHT22;10160;50.926;4.374;2023-06-04T11:53:12;25.50;71.70
19999;DHT22;10160;50.926;4.374;2023-06-04T11:55:39;24.70;72.80
19999;DHT22;10160;50.926;4.374;2023-06-04T11:58:05;25.30;79.40
19999;DHT22;10160;50.926;4.374;2023-06-04T12:00:31;25.90;78.00
19999;DHT22;10160;50.926;4.374;2023-06-04T12:02:57;26.30;73.50
19999;DHT22;10160;50.926;4.374;2023-06-04T12:05:31;25.80;76.90
19999;DHT22;10160;50.926;4.374;2023-06-04T12:08:08;25.60;76.90
19999;DHT22;10160;50.926;4.374;2023-06-04T12:10:42;25.90;77.40
19999;DHT22;10160;50.926;4.374;2023-06-04T12:13:08;25.90;72.50
19999;DHT22;10160;50.926;4.374;2023-06-04T12:15:34;26.70;77.80
19999;DHT22;10160;50.926;4.374;2023-06-04T12:18:00;27.50;72.90
19999;DHT22;10160;50.926;4.374;2023-06-04T12:20:39;27.60;74.60
19999;DHT22;10160;50.926;4.374;2023-06-04T12:23:06;28.30;73.40
19999;DHT22;10160;50.926;4.374;2023-06-04T12:25:33;27.50;65.70
19999;DHT22;10160;50.926;4.374;2023-06-04T12:27:59;27.60;71.80
19999;DHT22;10160;50.926;4.374;2023-06-04T12:30:38;28.10;71.40
19999;DHT22;10160;50.926;4.374;2023-06-04T12:33:05;27.50;65.60
19999;DHT22;10160;50.926;4.374;2023-06-04T12:35:31;27.50;69.70
19999;DHT22;10160;50.926;4.374;2023-06-04T12:37:56;28.20;69.40
19999;DHT22;10160;50.926;4.374;2023-06-04T12:40:22;28.70;68.30
19999;DHT22;10160;50.926;4.374;2023-06-04T12:42:50;28.60;64.70
19999;DHT22;10160;50.926;4.374;2023-06-04T12:45:17;28.20;63.70
19999;DHT22;10160;50.926;4.374;2023-06-04T12:47:42;27.80;65.40
19999;DHT22;10160;50.926;4.374;2023-06-04T12:50:08;28.10;64.70
19999;DHT22;10160;50.926;4.374;2023-06-04T12:52:34;28.20;58.90
19999;DHT22;10160;50.926;4.374;2023-06-04T12:55:00;27.90;64.70
19999;DHT22;10160;50.926;4.374;2023-06-04T12:57:26;28.10;63.00
19999;DHT22;10160;50.926;4.374;2023-06-04T12:59:52;27.80;66.00
19999;DHT22;10160;50.926;4.374;2023-06-04T13:02:17;28.40;64.80
19999;DHT22;10160;50.926;4.374;2023-06-04T13:04:43;29.00;61.70
19999;DHT22;10160;50.926;4.374;2023-06-04T13:07:11;29.40;63.10
19999;DHT22;10160;50.926;4.374;2023-06-04T13:09:37;29.40;60.70
19999;DHT22;10160;50.926;4.374;2023-06-04T13:12:03;29.60;61.50
19999;DHT22;10160;50.926;4.374;2023-06-04T13:14:30;28.30;56.80
19999;DHT22;10160;50.926;4.374;2023-06-04T13:16:58;27.30;60.70
19999;DHT22;10160;50.926;4.374;2023-06-04T13:19:24;27.60;59.00
19999;DHT22;10160;50.926;4.374;2023-06-04T13:21:50;28.20;64.50
19999;DHT22;10160;50.926;4.374;2023-06-04T13:24:16;28.90;62.00
19999;DHT22;10160;50.926;4.374;2023-06-04T13:26:41;28.10;58.00
19999;DHT22;10160;50.926;4.374;2023-06-04T13:29:07;27.80;60.10
19999;DHT22;10160;50.926;4.374;2023-06-04T13:31:33;27.90;57.30
19999;DHT22;10160;50.926;4.374;2023-06-04T13:33:58;27.30;58.10
19999;DHT22;10160;50.926;4.374;2023-06-04T13:36:24;26.50;55.20
19999;DHT22;10160;50.926;4.374;2023-06-04T13:38:50;25.90;57.70
19999;DHT22;10160;50.926;4.374;2023-06-04T13:41:20;26.40;59.30
19999;DHT22;10160;50.926;4.374;2023-06-04T13:43:46;27.10;60.40
19999;DHT22;10160;50.926;4.374;2023-06-04T13:46:15;27.70;59.20
19999;DHT22;10160;50.926;4.374;2023-06-04T13:48:41;27.50;61.10
19999;DHT22;10160;50.926;4.374;2023-06-04T13:51:07;28.10;58.60
19999;DHT22;10160;50.926;4.374;2023-06-04T13:53:32;27.10;56.10
19999;DHT22;10160;50.926;4.374;2023-06-04T13:55:58;26.90;58.20
19999;DHT22;10160;50.926;4.374;2023-06-04T13:58:25;27.20;59.30
19999;DHT22;10160;50.926;4.374;2023-06-04T14:00:51;27.80;57.00
19999;DHT22;10160;50.926;4.374;2023-06-04T14:03:17;28.30;56.50
19999;DHT22;10160;50.926;4.374;2023-06-04T14:05:43;28.10;57.00
19999;DHT22;10160;50.926;4.374;2023-06-04T14:08:08;27.80;54.20
19999;DHT22;10160;50.926;4.374;2023-06-04T14:10:34;28.00;56.80
19999;DHT22;10160;50.926;4.374;2023-06-04T14:13:01;28.10;53.90
19999;DHT22;10160;50.926;4.374;2023-06-04T14:15:28;27.60;53.00
19999;DHT22;10160;50.926;4.374;2023-06-04T14:17:53;27.10;56.60
19999;DHT22;10160;50.926;4.374;2023-06-04T14:20:19;27.20;55.00
19999;DHT22;10160;50.926;4.374;2023-06-04T14:22:45;27.40;56.10
19999;DHT22;10160;50.926;4.374;2023-06-04T14:25:10;28.00;58.60
19999;DHT22;10160;50.926;4.374;2023-06-04T14:27:36;27.90;54.60
19999;DHT22;10160;50.926;4.374;2023-06-04T14:30:03;27.60;55.30
19999;DHT22;10160;50.926;4.374;2023-06-04T14:32:29;26.90;54.60
19999;DHT22;10160;50.926;4.374;2023-06-04T14:34:54;26.40;53.80
19999;DHT22;10160;50.926;4.374;2023-06-04T14:37:20;25.70;55.20
19999;DHT22;10160;50.926;4.374;2023-06-04T14:39:47;26.40;59.90
19999;DHT22;10160;50.926;4.374;2023-06-04T14:42:12;26.70;57.80
19999;DHT22;10160;50.926;4.374;2023-06-04T14:44:38;27.30;58.00
19999;DHT22;10160;50.926;4.374;2023-06-04T14:47:04;27.30;55.70
19999;DHT22;10160;50.926;4.374;2023-06-04T14:49:30;27.80;56.70
19999;DHT22;10160;50.926;4.374;2023-06-04T14:51:56;27.80;56.30
19999;DHT22;10160;50.926;4.374;2023-06-04T14:54:21;27.50;55.10
19999;DHT22;10160;50.926;4.374;2023-06-04T14:56:47;27.10;53.10
19999;DHT22;10160;50.926;4.374;2023-06-04T14:59:13;26.20;54.10
19999;DHT22;10160;50.926;4.374;2023-06-04T15:01:39;26.00;56.40
19999;DHT22;10160;50.926;4.374;2023-06-04T15:04:06;26.40;58.80
19999;DHT22;10160;50.926;4.374;2023-06-04T15:06:32;26.70;56.90
19999;DHT22;10160;50.926;4.374;2023-06-04T15:08:58;27.10;56.20
19999;DHT22;10160;50.926;4.374;2023-06-04T15:11:24;26.80;57.00
19999;DHT22;10160;50.926;4.374;2023-06-04T15:13:52;26.30;55.00
19999;DHT22;10160;50.926;4.374;2023-06-04T15:16:17;25.50;55.10
19999;DHT22;10160;50.926;4.374;2023-06-04T15:18:43;25.60;58.00
19999;DHT22;10160;50.926;4.374;2023-06-04T15:21:09;25.90;57.80
19999;DHT22;10160;50.926;4.374;2023-06-04T15:23:34;26.20;57.90
19999;DHT22;10160;50.926;4.374;2023-06-04T15:26:00;26.70;58.60
19999;DHT22;10160;50.926;4.374;2023-06-04T15:28:26;26.90;57.40
19999;DHT22;10160;50.926;4.374;2023-06-04T15:30:51;27.20;58.40
19999;DHT22;10160;50.926;4.374;2023-06-04T15:33:17;26.80;57.00
19999;DHT22;10160;50.926;4.374;2023-06-04T15:35:43;26.80;57.40
19999;DHT22;10160;50.926;4.374;2023-06-04T15:38:08;27.00;58.60
19999;DHT22;10160;50.926;4.374;2023-06-04T15:40:34;26.90;58.40